createdAt,value
2023-04-11T00:01:36.930Z,5.75
2023-04-11T00:04:04.108Z,5.68
2023-04-11T00:06:32.494Z,5.50
2023-04-11T00:08:59.023Z,5.70
2023-04-11T00:11:33.276Z,6.00
2023-04-11T00:13:59.749Z,5.90
2023-04-11T00:16:26.715Z,5.85
2023-04-11T00:18:53.425Z,6.15
2023-04-11T00:21:20.062Z,5.75
2023-04-11T00:23:52.237Z,5.28
2023-04-11T00:26:23.718Z,6.07
2023-04-11T00:28:50.169Z,6.05
2023-04-11T00:31:16.723Z,6.13
2023-04-11T00:33:43.266Z,5.72
2023-04-11T00:36:11.447Z,5.55
2023-04-11T00:38:38.212Z,5.60
2023-04-11T00:41:04.747Z,6.15
2023-04-11T00:43:34.645Z,6.03
2023-04-11T00:46:05.878Z,5.72
2023-04-11T00:48:32.409Z,5.00
2023-04-11T00:50:59.094Z,4.90
2023-04-11T00:53:26.043Z,5.47
2023-04-11T00:55:52.666Z,5.22
2023-04-11T00:58:22.899Z,5.65
2023-04-11T01:00:52.474Z,5.00
2023-04-11T01:03:19.521Z,4.97
2023-04-11T01:05:49.012Z,4.53
2023-04-11T01:08:16.405Z,4.13
2023-04-11T01:10:42.972Z,3.72
2023-04-11T01:13:10.550Z,2.45
2023-04-11T01:15:38.770Z,2.70
2023-04-11T01:18:06.402Z,2.70
2023-04-11T01:20:33.452Z,2.35
2023-04-11T01:23:02.833Z,2.50
2023-04-11T01:25:29.360Z,2.15
2023-04-11T01:27:56.512Z,2.20
2023-04-11T01:30:23.149Z,2.20
2023-04-11T01:32:50.768Z,2.10
2023-04-11T01:35:21.680Z,1.70
2023-04-11T01:37:51.301Z,1.90
2023-04-11T01:40:19.599Z,2.50
2023-04-11T01:42:47.089Z,2.70
2023-04-11T01:45:13.621Z,2.67
2023-04-11T01:47:40.515Z,2.00
2023-04-11T01:50:07.688Z,1.63
2023-04-11T01:52:37.292Z,1.30
2023-04-11T01:55:04.230Z,1.30
2023-04-11T01:57:40.084Z,1.40
2023-04-11T02:00:08.926Z,1.67
2023-04-11T02:02:35.668Z,1.45
2023-04-11T02:05:02.216Z,1.40
2023-04-11T02:07:28.776Z,1.60
2023-04-11T02:09:56.434Z,1.55
2023-04-11T02:12:22.924Z,1.48
2023-04-11T02:14:49.987Z,1.50
2023-04-11T02:17:22.294Z,1.73
2023-04-11T02:19:49.352Z,1.30
2023-04-11T02:22:16.159Z,1.42
2023-04-11T02:24:42.647Z,1.55
2023-04-11T02:27:09.477Z,1.23
2023-04-11T02:29:36.074Z,1.20
2023-04-11T02:32:02.779Z,1.30
2023-04-11T02:34:29.419Z,1.10
2023-04-11T02:36:55.972Z,1.20
2023-04-11T02:39:25.444Z,1.23
2023-04-11T02:41:52.139Z,1.48
2023-04-11T02:44:19.491Z,1.17
2023-04-11T02:46:45.984Z,0.93
2023-04-11T02:49:12.530Z,1.20
2023-04-11T02:51:39.004Z,1.00
2023-04-11T02:54:06.269Z,1.15
2023-04-11T02:56:34.879Z,1.20
2023-04-11T02:59:01.383Z,1.20
2023-04-11T03:01:28.244Z,1.30
2023-04-11T03:03:54.867Z,1.10
2023-04-11T03:06:21.441Z,1.00
2023-04-11T03:08:48.141Z,1.20
2023-04-11T03:11:14.604Z,1.13
2023-04-11T03:13:41.180Z,1.13
2023-04-11T03:16:08.172Z,1.63
2023-04-11T03:18:35.493Z,1.20
2023-04-11T03:21:01.971Z,1.20
2023-04-11T03:23:28.493Z,1.25
2023-04-11T03:25:55.171Z,1.20
2023-04-11T03:28:21.708Z,1.30
2023-04-11T03:30:48.824Z,1.15
2023-04-11T03:33:15.414Z,1.48
2023-04-11T03:35:41.950Z,1.58
2023-04-11T03:38:08.430Z,1.35
2023-04-11T03:40:34.917Z,1.30
2023-04-11T03:43:04.339Z,1.33
2023-04-11T03:45:31.483Z,1.52
2023-04-11T03:47:57.983Z,1.20
2023-04-11T03:50:24.581Z,1.40
2023-04-11T03:52:51.064Z,1.52
2023-04-11T03:55:18.608Z,1.52
2023-04-11T03:57:45.195Z,1.50
2023-04-11T04:00:15.467Z,1.77
2023-04-11T04:02:42.261Z,1.27
2023-04-11T04:05:09.308Z,1.40
2023-04-11T04:07:35.851Z,1.40
2023-04-11T04:10:02.430Z,1.50
2023-04-11T04:12:28.976Z,1.50
2023-04-11T04:14:55.585Z,1.77
2023-04-11T04:17:22.114Z,1.70
2023-04-11T04:19:48.591Z,1.55
2023-04-11T04:22:17.590Z,1.63
2023-04-11T04:24:47.577Z,1.65
2023-04-11T04:27:14.110Z,1.67
2023-04-11T04:29:52.562Z,1.75
2023-04-11T04:32:30.803Z,2.10
2023-04-11T04:34:58.673Z,1.70
2023-04-11T04:37:25.873Z,1.77
2023-04-11T04:39:57.429Z,1.88
2023-04-11T04:42:30.343Z,2.53
2023-04-11T04:44:57.299Z,2.30
2023-04-11T04:47:26.063Z,2.60
2023-04-11T04:49:56.574Z,2.92
2023-04-11T04:52:27.818Z,2.55
2023-04-11T04:54:58.367Z,2.33
2023-04-11T04:57:25.912Z,2.78
2023-04-11T04:59:52.534Z,2.70
2023-04-11T05:02:22.563Z,2.30
2023-04-11T05:04:50.388Z,2.90
2023-04-11T05:07:18.285Z,2.53
2023-04-11T05:09:44.976Z,2.95
2023-04-11T05:12:11.582Z,2.75
2023-04-11T05:14:38.112Z,3.05
2023-04-11T05:17:04.873Z,2.85
2023-04-11T05:19:32.357Z,2.92
2023-04-11T05:21:58.873Z,3.03
2023-04-11T05:24:25.662Z,2.92
2023-04-11T05:26:52.116Z,2.90
2023-04-11T05:29:18.554Z,2.58
2023-04-11T05:31:45.054Z,1.70
2023-04-11T05:34:11.539Z,1.40
2023-04-11T05:36:38.038Z,2.00
2023-04-11T05:39:04.571Z,1.63
2023-04-11T05:41:31.221Z,1.67
2023-04-11T05:43:57.872Z,1.98
2023-04-11T05:46:24.844Z,2.10
2023-04-11T05:48:53.905Z,1.90
2023-04-11T05:51:20.400Z,1.83
2023-04-11T05:53:46.842Z,1.92
2023-04-11T05:56:13.400Z,2.25
2023-04-11T05:58:43.274Z,2.20
2023-04-11T06:01:14.301Z,2.00
2023-04-11T06:03:40.916Z,2.10
2023-04-11T06:06:10.766Z,2.20
2023-04-11T06:08:37.547Z,1.92
2023-04-11T06:11:04.333Z,2.20
2023-04-11T06:13:30.925Z,2.08
2023-04-11T06:15:57.500Z,2.00
2023-04-11T06:18:23.983Z,2.20
2023-04-11T06:20:50.733Z,2.20
2023-04-11T06:23:17.218Z,1.85
2023-04-11T06:25:43.687Z,1.83
2023-04-11T06:28:10.472Z,2.67
2023-04-11T06:30:39.603Z,2.80
2023-04-11T06:33:06.087Z,3.42
2023-04-11T06:35:35.601Z,3.80
2023-04-11T06:38:02.105Z,4.22
2023-04-11T06:40:28.549Z,4.90
2023-04-11T06:42:57.858Z,5.35
2023-04-11T06:45:24.536Z,5.18
2023-04-11T06:47:51.082Z,5.53
2023-04-11T06:50:17.708Z,5.68
2023-04-11T06:52:44.243Z,5.47
2023-04-11T06:55:14.374Z,5.30
2023-04-11T06:57:42.861Z,4.90
2023-04-11T07:00:12.187Z,6.22
2023-04-11T07:02:41.909Z,6.05
2023-04-11T07:05:10.186Z,5.80
2023-04-11T07:07:37.421Z,6.38
2023-04-11T07:10:04.933Z,5.00
2023-04-11T07:12:31.434Z,5.35
2023-04-11T07:14:57.882Z,4.22
2023-04-11T07:17:24.469Z,4.68
2023-04-11T07:19:50.918Z,4.00
2023-04-11T07:22:17.463Z,4.43
2023-04-11T07:24:46.394Z,4.53
2023-04-11T07:27:14.435Z,5.15
2023-04-11T07:29:41.171Z,4.88
2023-04-11T07:32:07.759Z,5.30
2023-04-11T07:34:34.216Z,5.60
2023-04-11T07:37:01.073Z,5.68
2023-04-11T07:39:27.908Z,4.55
2023-04-11T07:41:54.490Z,4.80
2023-04-11T07:44:21.939Z,2.65
2023-04-11T07:46:49.003Z,1.63
2023-04-11T07:49:15.647Z,1.55
2023-04-11T07:51:42.119Z,1.30
2023-04-11T07:54:09.518Z,1.30
2023-04-11T07:56:36.138Z,1.63
2023-04-11T07:59:03.356Z,1.85
2023-04-11T08:01:29.852Z,1.83
2023-04-11T08:03:57.366Z,1.95
2023-04-11T08:06:24.408Z,1.88
2023-04-11T08:08:51.474Z,2.20
2023-04-11T08:11:17.977Z,2.40
2023-04-11T08:13:45.098Z,2.40
2023-04-11T08:16:12.504Z,2.03
2023-04-11T08:18:42.217Z,1.98
2023-04-11T08:21:12.229Z,1.75
2023-04-11T08:23:42.592Z,2.10
2023-04-11T08:26:09.887Z,2.00
2023-04-11T08:28:36.443Z,1.50
2023-04-11T08:31:04.449Z,2.15
2023-04-11T08:33:31.079Z,2.10
2023-04-11T08:35:57.643Z,1.50
2023-04-11T08:38:24.151Z,1.55
2023-04-11T08:40:50.599Z,1.63
2023-04-11T08:43:17.157Z,1.60
2023-04-11T08:45:43.656Z,1.25
2023-04-11T08:48:12.326Z,1.40
2023-04-11T08:50:44.136Z,1.30
2023-04-11T08:53:11.591Z,1.63
2023-04-11T08:55:47.587Z,1.33
2023-04-11T08:58:14.758Z,1.70
2023-04-11T09:00:41.289Z,1.48
2023-04-11T09:03:13.596Z,1.20
2023-04-11T09:05:41.796Z,1.05
2023-04-11T09:08:13.080Z,1.50
2023-04-11T09:10:41.711Z,1.10
2023-04-11T09:13:25.209Z,1.38
2023-04-11T09:16:14.854Z,1.63
2023-04-11T09:18:46.537Z,1.70
2023-04-11T09:21:15.088Z,1.77
2023-04-11T09:23:41.621Z,1.70
2023-04-11T09:26:11.185Z,1.85
2023-04-11T09:28:42.778Z,2.22
2023-04-11T09:31:10.790Z,1.95
2023-04-11T09:33:37.263Z,2.13
2023-04-11T09:36:18.680Z,1.92
2023-04-11T09:38:45.386Z,2.75
2023-04-11T09:41:11.964Z,2.67
2023-04-11T09:43:57.941Z,2.38
2023-04-11T09:46:25.374Z,2.50
2023-04-11T09:48:54.670Z,2.20
2023-04-11T09:51:35.199Z,2.45
2023-04-11T09:54:03.811Z,2.55
2023-04-11T09:56:36.807Z,2.35
2023-04-11T09:59:05.157Z,2.97
2023-04-11T10:01:32.290Z,2.67
2023-04-11T10:04:00.910Z,2.97
2023-04-11T10:06:38.669Z,3.35
2023-04-11T10:09:11.179Z,3.85
2023-04-11T10:11:42.460Z,3.35
2023-04-11T10:14:09.106Z,3.90
2023-04-11T10:16:35.716Z,3.40
2023-04-11T10:19:02.353Z,3.35
2023-04-11T10:21:37.667Z,3.55
2023-04-11T10:24:10.107Z,3.45
2023-04-11T10:26:48.091Z,3.45
2023-04-11T10:29:29.514Z,2.70
2023-04-11T10:32:11.165Z,3.33
2023-04-11T10:34:40.037Z,3.08
2023-04-11T10:37:10.356Z,3.28
2023-04-11T10:39:52.089Z,2.80
2023-04-11T10:42:36.025Z,3.03
2023-04-11T10:45:28.862Z,2.40
2023-04-11T10:48:07.674Z,3.00
2023-04-11T10:50:37.638Z,2.88
2023-04-11T10:53:09.546Z,2.50
2023-04-11T10:58:19.837Z,3.10
2023-04-11T11:00:55.334Z,3.35
2023-04-11T11:03:28.096Z,2.90
2023-04-11T11:06:06.299Z,2.83
2023-04-11T11:08:35.080Z,2.80
2023-04-11T11:11:03.122Z,3.00
2023-04-11T11:14:02.051Z,2.70
2023-04-11T11:16:28.657Z,3.00
2023-04-11T11:18:56.653Z,2.85
2023-04-11T11:21:27.677Z,2.72
2023-04-11T11:24:01.771Z,2.58
2023-04-11T11:26:44.205Z,2.33
2023-04-11T11:29:11.173Z,2.78
2023-04-11T11:31:39.424Z,2.20
2023-04-11T11:34:22.665Z,2.15
2023-04-11T11:36:50.012Z,2.22
2023-04-11T11:39:16.672Z,1.80
2023-04-11T11:41:43.256Z,1.90
2023-04-11T11:44:27.790Z,1.75
2023-04-11T11:47:05.305Z,1.50
2023-04-11T11:49:54.806Z,1.70
2023-04-11T11:52:35.063Z,1.33
2023-04-11T11:55:03.689Z,1.67
2023-04-11T11:57:30.281Z,1.52
2023-04-11T11:59:58.284Z,1.85
2023-04-11T12:02:26.863Z,1.42
2023-04-11T12:05:01.421Z,1.48
2023-04-11T12:07:37.531Z,1.65
2023-04-11T12:10:14.235Z,2.03
2023-04-11T12:12:42.411Z,1.70
2023-04-11T12:15:13.840Z,2.00
2023-04-11T12:17:48.042Z,1.70
2023-04-11T12:20:17.625Z,1.40
2023-04-11T12:22:44.125Z,1.67
2023-04-11T12:25:12.813Z,1.67
2023-04-11T12:27:47.089Z,1.88
2023-04-11T12:30:17.145Z,1.85
2023-04-11T12:32:44.773Z,1.85
2023-04-11T12:35:12.575Z,2.00
2023-04-11T12:37:39.160Z,1.73
2023-04-11T12:40:12.051Z,2.10
2023-04-11T12:42:53.281Z,1.92
2023-04-11T12:45:22.221Z,2.20
2023-04-11T12:47:48.788Z,2.03
2023-04-11T12:50:15.346Z,1.80
2023-04-11T12:52:41.857Z,2.25
2023-04-11T12:55:09.502Z,2.42
2023-04-11T12:57:36.659Z,2.20
2023-04-11T13:00:13.331Z,2.10
2023-04-11T13:02:43.981Z,2.47
2023-04-11T13:05:14.263Z,2.10
2023-04-11T13:07:41.575Z,2.03
2023-04-11T13:10:08.653Z,1.95
2023-04-11T13:12:41.112Z,1.70
2023-04-11T13:15:09.505Z,1.70
2023-04-11T13:17:36.070Z,1.60
2023-04-11T13:20:03.365Z,1.30
2023-04-11T13:22:29.896Z,1.40
2023-04-11T13:24:56.445Z,1.25
2023-04-11T13:27:23.023Z,1.40
2023-04-11T13:29:49.524Z,1.00
2023-04-11T13:32:16.010Z,1.40
2023-04-11T13:34:42.541Z,1.30
2023-04-11T13:37:09.322Z,1.20
2023-04-11T13:39:36.266Z,1.40
2023-04-11T13:42:02.797Z,1.40
2023-04-11T13:44:29.326Z,1.42
2023-04-11T13:46:55.895Z,1.73
2023-04-11T13:49:22.397Z,2.05
2023-04-11T13:51:48.936Z,1.80
2023-04-11T13:54:15.494Z,2.20
2023-04-11T13:56:42.117Z,2.10
2023-04-11T13:59:08.646Z,2.00
2023-04-11T14:01:35.217Z,2.40
2023-04-11T14:04:04.790Z,2.40
2023-04-11T14:06:31.425Z,2.88
2023-04-11T14:08:58.052Z,2.20
2023-04-11T14:11:27.423Z,2.20
2023-04-11T14:13:53.939Z,2.22
2023-04-11T14:16:20.521Z,2.28
2023-04-11T14:18:47.122Z,2.25
2023-04-11T14:21:13.797Z,2.10
2023-04-11T14:23:40.490Z,2.53
2023-04-11T14:26:07.088Z,2.15
2023-04-11T14:28:33.818Z,2.53
2023-04-11T14:31:00.536Z,2.17
2023-04-11T14:33:27.077Z,1.73
2023-04-11T14:35:53.572Z,2.00
2023-04-11T14:38:20.036Z,1.45
2023-04-11T14:40:49.062Z,1.35
2023-04-11T14:43:18.328Z,1.63
2023-04-11T14:45:44.841Z,1.80
2023-04-11T14:48:11.706Z,1.92
2023-04-11T14:50:38.197Z,1.65
2023-04-11T14:53:05.127Z,2.42
2023-04-11T14:55:31.591Z,2.40
2023-04-11T14:57:58.086Z,2.00
2023-04-11T15:00:24.955Z,1.83
2023-04-11T15:02:54.127Z,2.17
2023-04-11T15:05:22.507Z,1.73
2023-04-11T15:07:54.023Z,1.90
2023-04-11T15:10:23.330Z,1.38
2023-04-11T15:12:49.855Z,1.13
2023-04-11T15:15:16.783Z,1.30
2023-04-11T15:17:47.412Z,1.13
2023-04-11T15:20:17.240Z,1.40
2023-04-11T15:22:45.408Z,1.10
2023-04-11T15:25:14.680Z,1.38
2023-04-11T15:27:42.213Z,1.30
2023-04-11T15:30:10.106Z,1.50
2023-04-11T15:32:42.077Z,1.40
2023-04-11T15:37:35.665Z,1.38
2023-04-11T15:40:05.988Z,2.10
2023-04-11T15:42:35.299Z,1.40
2023-04-11T15:45:02.202Z,1.98
2023-04-11T15:47:29.250Z,2.53
2023-04-11T15:49:56.278Z,1.70
2023-04-11T15:52:26.384Z,1.77
2023-04-11T15:54:52.944Z,1.80
2023-04-11T15:57:19.582Z,1.80
2023-04-11T15:59:48.128Z,2.10
2023-04-11T16:02:15.142Z,2.60
2023-04-11T16:04:44.757Z,4.05
2023-04-11T16:07:13.647Z,2.88
2023-04-11T16:09:40.290Z,2.17
2023-04-11T16:12:06.993Z,2.40
2023-04-11T16:14:33.496Z,2.60
2023-04-11T16:17:00.191Z,2.60
2023-04-11T16:19:26.697Z,3.40
2023-04-11T16:21:53.989Z,4.00
2023-04-11T16:24:20.923Z,5.35
2023-04-11T16:26:47.466Z,5.18
2023-04-11T16:29:13.919Z,4.43
2023-04-11T16:31:40.551Z,2.92
2023-04-11T16:34:07.197Z,3.28
2023-04-11T16:36:34.616Z,2.53
2023-04-11T16:39:01.691Z,2.80
2023-04-11T16:41:28.213Z,3.03
2023-04-11T16:43:54.886Z,2.60
2023-04-11T16:46:21.780Z,2.28
2023-04-11T16:48:48.355Z,2.65
2023-04-11T16:51:14.880Z,2.80
2023-04-11T16:53:41.427Z,2.60
2023-04-11T16:56:08.345Z,3.10
2023-04-11T16:58:34.875Z,3.10
2023-04-11T17:01:01.817Z,3.22
2023-04-11T17:03:28.709Z,2.88
2023-04-11T17:05:58.196Z,3.92
2023-04-11T17:08:26.446Z,3.22
2023-04-11T17:10:53.334Z,3.47
2023-04-11T17:13:19.787Z,2.88
2023-04-11T17:15:46.409Z,3.05
2023-04-11T17:18:14.810Z,3.25
2023-04-11T17:20:43.422Z,2.60
2023-04-11T17:23:10.124Z,3.70
2023-04-11T17:25:36.789Z,3.92
2023-04-11T17:28:03.340Z,4.65
2023-04-11T17:30:30.962Z,5.07
2023-04-11T17:32:57.720Z,5.07
2023-04-11T17:35:24.453Z,4.18
2023-04-11T17:37:51.025Z,4.03
2023-04-11T17:40:18.713Z,4.68
2023-04-11T17:42:46.038Z,4.13
2023-04-11T17:47:44.377Z,3.63
2023-04-11T17:50:12.885Z,4.20
2023-04-11T17:52:41.706Z,3.85
2023-04-11T17:55:10.371Z,5.28
2023-04-11T17:57:37.755Z,6.00
2023-04-11T18:00:26.186Z,5.40
2023-04-11T18:02:54.923Z,6.13
2023-04-11T18:05:24.488Z,6.15
2023-04-11T18:07:54.135Z,5.50
2023-04-11T18:10:24.830Z,5.63
2023-04-11T18:12:52.916Z,4.47
2023-04-11T18:15:21.238Z,4.20
2023-04-11T18:17:48.156Z,3.80
2023-04-11T18:20:15.488Z,3.97
2023-04-11T18:22:46.182Z,3.65
2023-04-11T18:25:13.156Z,4.30
2023-04-11T18:27:40.710Z,3.85
2023-04-11T18:30:13.998Z,4.32
2023-04-11T18:32:47.443Z,3.92
2023-04-11T18:35:15.660Z,3.92
2023-04-11T18:37:42.788Z,3.20
2023-04-11T18:40:14.186Z,3.78
2023-04-11T18:42:46.404Z,4.18
2023-04-11T18:45:15.322Z,4.25
2023-04-11T18:47:42.025Z,3.97
2023-04-11T18:50:08.924Z,3.58
2023-04-11T18:52:35.829Z,4.40
2023-04-11T18:55:03.323Z,4.88
2023-04-11T18:57:33.818Z,4.28
2023-04-11T19:00:12.769Z,4.60
2023-04-11T19:02:41.833Z,5.43
2023-04-11T19:05:13.790Z,4.45
2023-04-11T19:07:45.820Z,4.10
2023-04-11T19:10:12.686Z,4.03
2023-04-11T19:12:40.729Z,3.72
2023-04-11T19:15:08.851Z,3.75
2023-04-11T19:17:36.622Z,3.38
2023-04-11T19:20:06.989Z,3.40
2023-04-11T19:22:34.600Z,3.70
2023-04-11T19:25:01.068Z,4.03
2023-04-11T19:27:27.698Z,5.07
2023-04-11T19:29:54.247Z,4.47
2023-04-11T19:32:20.929Z,4.85
2023-04-11T19:34:49.678Z,5.20
2023-04-11T19:37:16.720Z,5.05
2023-04-11T19:39:43.900Z,5.13
2023-04-11T19:42:10.635Z,4.10
2023-04-11T19:44:37.685Z,3.60
2023-04-11T19:47:09.723Z,4.30
2023-04-11T19:52:02.628Z,3.83
2023-04-11T19:54:30.689Z,3.85
2023-04-11T19:57:00.608Z,3.60
2023-04-11T19:59:27.180Z,4.53
2023-04-11T20:01:54.222Z,3.97
2023-04-11T20:04:21.200Z,4.75
2023-04-11T20:06:54.371Z,4.63
2023-04-11T20:09:23.838Z,5.25
2023-04-11T20:11:54.323Z,6.45
2023-04-11T20:14:20.860Z,6.18
2023-04-11T20:16:47.304Z,4.85
2023-04-11T20:19:14.488Z,4.13
2023-04-11T20:21:43.234Z,3.33
2023-04-11T20:24:10.441Z,3.10
2023-04-11T20:26:36.889Z,3.38
2023-04-11T20:29:03.668Z,3.50
2023-04-11T20:31:30.163Z,3.53
2023-04-11T20:33:59.910Z,4.03
2023-04-11T20:36:32.789Z,3.40
2023-04-11T20:39:04.560Z,3.58
2023-04-11T20:41:32.236Z,4.30
2023-04-11T20:43:59.508Z,4.70
2023-04-11T20:46:29.707Z,4.38
2023-04-11T20:48:56.589Z,3.80
2023-04-11T20:51:25.204Z,10.75
2023-04-11T20:53:51.770Z,9.57
2023-04-11T20:56:18.257Z,7.25
2023-04-11T20:58:48.333Z,7.30
2023-04-11T21:01:15.410Z,8.45
2023-04-11T21:03:44.037Z,10.70
2023-04-11T21:06:10.831Z,10.55
2023-04-11T21:08:37.749Z,8.95
2023-04-11T21:11:08.633Z,8.07
2023-04-11T21:13:35.072Z,7.10
2023-04-11T21:16:02.412Z,5.50
2023-04-11T21:18:28.936Z,4.55
2023-04-11T21:20:55.435Z,3.90
2023-04-11T21:23:22.208Z,4.25
2023-04-11T21:25:51.325Z,4.35
2023-04-11T21:28:17.799Z,4.07
2023-04-11T21:30:44.286Z,4.10
2023-04-11T21:33:10.844Z,3.80
2023-04-11T21:35:37.366Z,3.05
2023-04-11T21:38:03.981Z,2.80
2023-04-11T21:40:30.777Z,2.70
2023-04-11T21:42:59.765Z,2.15
2023-04-11T21:45:29.125Z,2.42
2023-04-11T21:47:58.729Z,2.67
2023-04-11T21:50:25.478Z,2.97
2023-04-11T21:52:55.637Z,2.83
2023-04-11T21:55:25.602Z,2.13
2023-04-11T21:57:52.082Z,2.10
2023-04-11T22:00:18.670Z,2.20
2023-04-11T22:02:45.463Z,2.35
2023-04-11T22:05:12.616Z,2.10
2023-04-11T22:07:48.630Z,2.72
2023-04-11T22:10:25.852Z,2.17
2023-04-11T22:12:55.714Z,2.38
2023-04-11T22:15:27.150Z,2.20
2023-04-11T22:17:56.263Z,2.42
2023-04-11T22:20:23.043Z,2.22
2023-04-11T22:22:52.564Z,2.28
2023-04-11T22:25:22.124Z,2.78
2023-04-11T22:27:49.738Z,2.30
2023-04-11T22:30:16.551Z,2.65
2023-04-11T22:32:43.110Z,2.28
2023-04-11T22:35:12.019Z,1.92
2023-04-11T22:37:44.721Z,2.45
2023-04-11T22:40:12.015Z,3.30
2023-04-11T22:42:39.292Z,3.10
2023-04-11T22:45:06.859Z,3.15
2023-04-11T22:47:34.427Z,2.83
2023-04-11T22:50:04.071Z,3.25
2023-04-11T22:52:30.615Z,3.42
2023-04-11T22:54:57.458Z,3.22
2023-04-11T22:57:27.078Z,3.42
2023-04-11T22:59:53.530Z,4.53
2023-04-11T23:02:20.105Z,4.85
2023-04-11T23:04:46.729Z,4.57
2023-04-11T23:07:16.995Z,4.97
2023-04-11T23:09:44.779Z,3.78
2023-04-11T23:12:11.597Z,3.53
2023-04-11T23:14:40.917Z,2.47
2023-04-11T23:17:07.509Z,2.53
2023-04-11T23:19:34.196Z,2.70
2023-04-11T23:22:00.876Z,2.25
2023-04-11T23:24:30.539Z,2.33
2023-04-11T23:26:57.210Z,2.17
2023-04-11T23:29:23.851Z,2.45
2023-04-11T23:31:50.705Z,1.95
2023-04-11T23:34:17.173Z,1.90
2023-04-11T23:36:43.732Z,2.03
2023-04-11T23:39:10.208Z,2.15
2023-04-11T23:41:37.309Z,2.00
2023-04-11T23:44:07.047Z,1.95
2023-04-11T23:46:33.590Z,2.58
2023-04-11T23:49:00.112Z,2.10
2023-04-11T23:51:27.064Z,2.42
2023-04-11T23:53:54.056Z,2.60
2023-04-11T23:56:21.375Z,2.70
2023-04-11T23:58:54.329Z,2.25
